Time;durP1;ratioP1;P1;durP2;ratioP2;P2;SDS_P1;SDS_P2;PMS_P1;PMS_P2;Temp;Humidity;BMP_temperature;BMP_pressure;BME280_temperature;BME280_humidity;BME280_pressure;Samples;Min_cycle;Max_cycle;Signal;HPM_P1;HPM_P2
2021/07/26 00:02:26;;;;;;;21.12;13.00;;;;;;;22.39;62.45;100265.72;5080732;57;21119;-82
2021/07/26 00:07:32;;;;;;;21.97;11.20;;;;;;;22.31;63.18;100253.23;5002571;59;21523;-81
2021/07/26 00:12:38;;;;;;;22.73;12.93;;;;;;;22.28;63.90;100246.09;5031990;58;21215;-77
2021/07/26 00:17:43;;;;;;;18.80;12.90;;;;;;;22.20;64.17;100241.70;4993493;59;21222;-78
2021/07/26 00:22:49;;;;;;;15.20;11.78;;;;;;;22.14;64.59;100232.27;4995773;59;21119;-82
2021/07/26 00:27:54;;;;;;;16.05;11.78;;;;;;;22.13;64.99;100229.25;4993031;59;21163;-80
2021/07/26 00:33:00;;;;;;;25.72;13.08;;;;;;;22.13;65.00;100227.39;5080577;57;21207;-79
2021/07/26 00:38:06;;;;;;;14.55;11.83;;;;;;;22.14;65.16;100237.14;5034337;58;21700;-80
2021/07/26 00:43:11;;;;;;;18.70;12.95;;;;;;;22.21;65.37;100234.45;5143860;57;21512;-79
2021/07/26 00:48:17;;;;;;;19.50;12.37;;;;;;;22.30;65.53;100236.78;5135185;57;21418;-79
2021/07/26 00:53:23;;;;;;;22.40;13.15;;;;;;;22.31;65.45;100238.42;4995508;59;21167;-81
2021/07/26 00:58:29;;;;;;;25.30;13.35;;;;;;;22.25;65.51;100237.06;5081511;57;21176;-80
2021/07/26 01:03:35;;;;;;;22.67;13.55;;;;;;;22.15;65.65;100241.49;5148839;57;21198;-79
2021/07/26 01:08:42;;;;;;;20.08;13.62;;;;;;;22.06;65.92;100241.33;4995209;59;22205;-79
2021/07/26 01:13:47;;;;;;;18.48;12.28;;;;;;;;;;4957508;59;21528;-83
2021/07/26 01:18:52;;;;;;;21.33;12.95;;;;;;;22.04;66.21;100233.96;4961834;59;21558;-79
2021/07/26 01:23:59;;;;;;;16.07;13.18;;;;;;;22.08;66.26;100233.89;5031733;58;21668;-82
2021/07/26 01:29:10;;;;;;;21.20;12.88;;;;;;;22.03;66.24;100228.26;4938376;59;21234;-80
2021/07/26 01:34:16;;;;;;;18.62;12.37;;;;;;;21.94;66.41;100237.00;5037567;57;21234;-80
2021/07/26 01:39:22;;;;;;;25.68;13.32;;;;;;;21.85;66.54;100229.27;4957360;59;21160;-81
2021/07/26 01:44:27;;;;;;;16.37;11.95;;;;;;;21.74;66.88;100240.09;5049296;58;21661;-81
2021/07/26 01:49:55;;;;;;;18.05;13.40;;;;;;;21.64;66.98;100231.03;4940580;59;21116;-80
2021/07/26 01:55:01;;;;;;;19.45;13.18;;;;;;;21.52;67.08;100233.14;4992861;59;21214;-82
2021/07/26 02:00:07;;;;;;;24.98;14.33;;;;;;;21.39;67.42;100243.27;4915556;59;21563;-80
2021/07/26 02:05:14;;;;;;;18.92;13.93;;;;;;;21.37;67.84;100250.73;5039483;58;21214;-78
2021/07/26 02:10:21;;;;;;;21.30;12.88;;;;;;;21.25;67.95;100253.61;4943134;59;21219;-80
2021/07/26 02:15:27;;;;;;;21.12;13.10;;;;;;;21.08;68.37;100261.11;5082929;57;21152;-78
2021/07/26 02:20:33;;;;;;;19.85;13.22;;;;;;;21.06;68.68;100273.91;5068846;57;21176;-79
2021/07/26 02:25:39;;;;;;;22.37;13.90;;;;;;;20.89;68.79;100271.16;5077037;57;21190;-81
2021/07/26 02:30:44;;;;;;;18.90;13.53;;;;;;;20.84;69.42;100273.07;5081359;57;21176;-81
2021/07/26 02:35:51;;;;;;;20.68;14.87;;;;;;;20.81;69.58;100270.76;5135097;57;21183;-81
2021/07/26 02:40:57;;;;;;;18.77;14.53;;;;;;;20.83;69.60;100258.47;5028263;58;21153;-79
2021/07/26 02:46:05;;;;;;;18.82;13.40;;;;;;;20.87;69.84;100272.69;5030580;58;21426;-79
2021/07/26 02:51:09;;;;;;;15.58;13.95;;;;;;;20.85;69.58;100268.53;5017057;58;21148;-83
2021/07/26 02:56:15;;;;;;;20.45;13.80;;;;;;;20.77;69.70;100272.19;4971943;58;21111;-80
2021/07/26 03:01:21;;;;;;;18.85;14.40;;;;;;;20.71;69.87;100267.56;5042727;58;21236;-82
2021/07/26 03:06:26;;;;;;;27.58;13.25;;;;;;;20.72;70.17;100274.61;4984464;59;21144;-81
2021/07/26 03:11:32;;;;;;;21.40;13.70;;;;;;;20.80;70.16;100268.26;4969444;59;21147;-81
2021/07/26 03:16:37;;;;;;;20.57;13.45;;;;;;;20.74;69.81;100273.07;5004066;59;21525;-82
2021/07/26 03:21:43;;;;;;;21.33;13.32;;;;;;;20.69;70.08;100272.29;4972837;58;68034;-82
2021/07/26 03:26:49;;;;;;;22.73;14.20;;;;;;;20.73;70.44;100280.30;5001705;58;21183;-81
2021/07/26 03:31:55;;;;;;;19.77;13.22;;;;;;;20.81;70.58;100269.41;5020593;58;22110;-81
2021/07/26 03:37:01;;;;;;;13.28;11.88;;;;;;;20.81;70.31;100272.61;5039867;58;21309;-80
2021/07/26 03:42:07;;;;;;;17.70;12.35;;;;;;;20.73;70.29;100260.66;5036665;58;21129;-83
2021/07/26 03:47:12;;;;;;;16.20;13.18;;;;;;;20.65;70.54;100253.53;5053983;57;21210;-80
2021/07/26 03:52:19;;;;;;;28.38;14.75;;;;;;;20.61;70.96;100256.30;5067252;57;21170;-81
2021/07/26 03:57:25;;;;;;;18.17;13.40;;;;;;;20.63;71.22;100260.44;5015889;58;21237;-79
2021/07/26 04:02:31;;;;;;;19.87;12.98;;;;;;;20.73;71.37;100267.37;5031163;58;21545;-80
2021/07/26 04:07:39;;;;;;;19.48;12.90;;;;;;;20.80;71.06;100254.81;4987193;59;21185;-80
2021/07/26 04:12:49;;;;;;;26.42;12.98;;;;;;;20.77;70.96;100260.60;5000853;58;21185;-79
2021/07/26 04:17:52;;;;;;;19.17;13.28;;;;;;;20.72;70.99;100257.14;5001023;59;21149;-81
2021/07/26 04:22:58;;;;;;;17.98;13.50;;;;;;;20.66;71.40;100248.48;5001176;59;21165;-79
2021/07/26 04:28:04;;;;;;;57.55;15.05;;;;;;;20.69;71.66;100244.08;5045145;58;21765;-82
2021/07/26 04:33:11;;;;;;;46.28;15.05;;;;;;;20.64;71.53;100232.55;5031532;58;21568;-80
2021/07/26 04:38:16;;;;;;;21.05;13.28;;;;;;;20.64;71.87;100237.92;5011073;58;21292;-82
2021/07/26 04:43:22;;;;;;;25.40;13.85;;;;;;;20.65;72.12;100232.87;5016022;58;21270;-83
2021/07/26 04:48:27;;;;;;;19.48;11.68;;;;;;;20.62;72.31;100227.87;4946384;59;21182;-81
2021/07/26 04:53:36;;;;;;;22.52;12.30;;;;;;;20.54;72.67;100228.52;5016247;58;21230;-82
2021/07/26 04:58:42;;;;;;;18.82;13.38;;;;;;;20.59;72.98;100239.02;5044223;58;21185;-82
2021/07/26 05:03:47;;;;;;;15.20;12.88;;;;;;;20.73;73.14;100246.70;4954454;59;21193;-82
2021/07/26 05:08:53;;;;;;;14.25;10.48;;;;;;;20.84;73.07;100246.70;5020881;58;21170;-84
2021/07/26 05:13:59;;;;;;;13.20;9.98;;;;;;;20.90;73.02;100233.34;4968715;59;21217;-81
2021/07/26 05:19:05;;;;;;;19.65;13.35;;;;;;;20.89;73.01;100222.26;4932120;59;22168;-83
2021/07/26 05:24:11;;;;;;;12.85;10.80;;;;;;;20.88;73.06;100221.11;4931239;59;21195;-81
2021/07/26 05:29:17;;;;;;;17.92;13.25;;;;;;;20.95;73.50;100220.13;4954770;59;21185;-81
2021/07/26 05:34:23;;;;;;;24.47;12.82;;;;;;;20.96;73.32;100212.38;5006370;58;21259;-81
2021/07/26 05:39:29;;;;;;;13.75;10.75;;;;;;;21.00;73.52;100216.86;5001687;58;21611;-81
2021/07/26 05:44:41;;;;;;;14.80;11.50;;;;;;;21.14;73.73;100223.18;5001711;58;21190;-82
2021/07/26 05:49:47;;;;;;;13.62;11.88;;;;;;;21.20;73.44;100230.52;5007606;58;21230;-82
2021/07/26 05:54:53;;;;;;;15.83;10.65;;;;;;;21.27;73.33;100231.38;5042563;58;21123;-82
2021/07/26 05:59:59;;;;;;;23.40;10.48;;;;;;;21.29;72.95;100224.78;5041554;58;22078;-84
2021/07/26 06:05:06;;;;;;;19.45;10.90;;;;;;;21.34;72.57;100221.00;5001715;59;22081;-82
2021/07/26 06:10:12;;;;;;;26.93;11.48;;;;;;;21.39;72.43;100219.05;5001678;59;21212;-83
